Latest Weather Observations for Yamba

IDN60801

Issued at 8:35 pm EDT Wednesday 26 November 2014 (issued every 30 minutes, with the page automatically refreshed every 10 minutes)

About weather observations | Map of weather stations | Latest weather observations for NSW | Other Formats
Station Details ID: 058012 Name: YAMBA PILOT STATION Lat: -29.43 Lon: 153.36 Height: 27.4 m
Data from the previous 72 hours. | See also: Recent months at Yamba
Date/Time
EDT
Temp
°C
App
Temp
°C
Dew
Point
Rel
Hum
%
Delta-T
°C
Wind Press
QNH
hPa
Press
MSL
hPa
Rain
since 9 am
mm
Dir
 
Spd
km/h
Gust
km/h
Spd
kts
Gust
kts
26/08:30pm 21.4 25.8 21.4 100 0.0 CALM 0 7 0 4 1017.0 - 0.0
26/08:00pm 21.5 24.6 21.5 100 0.0 S 7 9 4 5 1016.8 - 0.0
26/07:30pm 21.4 24.1 21.4 100 0.0 S 9 13 5 7 1016.7 - 0.0
26/07:00pm 21.4 23.7 21.4 100 0.0 S 11 15 6 8 1016.6 - 0.0
26/06:30pm 21.5 24.6 21.5 100 0.0 SSW 7 11 4 6 1016.2 - 0.0
26/06:00pm 21.2 22.7 21.2 100 0.0 S 15 19 8 10 1016.1 1015.9 0.0
26/05:30pm 20.9 22.2 20.9 100 0.0 S 15 24 8 13 1016.0 - 0.0
26/05:00pm 21.0 21.6 21.0 100 0.0 SSE 19 24 10 13 1015.9 - 0.0
26/04:30pm 21.4 22.6 21.4 100 0.0 S 17 32 9 17 1016.5 - 0.0
26/04:00pm 21.7 22.5 21.4 98 0.2 SSE 19 30 10 16 1016.2 - 0.0
26/03:30pm 22.0 22.7 21.2 95 0.5 SSE 19 30 10 16 1016.1 - 0.0
26/03:00pm 22.6 24.0 21.9 96 0.5 SSE 17 26 9 14 1016.3 1016.1 0.0
26/02:30pm 23.0 25.0 22.2 95 0.5 SSE 15 20 8 11 1016.5 - 0.0
26/02:00pm 22.9 25.5 22.6 98 0.2 S 13 20 7 11 1016.9 - 0.0
26/01:30pm 22.5 24.5 22.2 98 0.2 SSE 15 20 8 11 1017.1 - 0.0
26/01:00pm 23.0 24.8 21.8 93 0.8 S 15 22 8 12 1017.4 - 0.0
26/12:30pm 23.3 25.5 21.9 92 0.9 SSE 13 19 7 10 1017.3 - 0.0
26/12:00pm 23.2 24.7 22.0 93 0.8 SE 17 26 9 14 1017.5 1017.3 0.0
26/11:30am 24.6 27.1 22.5 88 1.4 SSE 13 19 7 10 1017.7 - 0.0
26/11:00am 23.7 25.7 22.3 92 0.9 SSE 15 22 8 12 1017.9 - 0.0
26/10:30am 23.9 26.2 22.7 93 0.8 S 15 22 8 12 1017.8 - 0.0
26/10:00am 23.2 24.6 21.8 92 0.9 SSE 17 20 9 11 1017.7 - 0.0
26/09:30am 23.2 24.7 22.0 93 0.8 SSE 17 24 9 13 1017.9 - 0.0
26/09:00am 23.4 25.8 22.9 97 0.3 SSE 15 22 8 12 1017.6 1017.5 6.4
26/08:30am 22.0 23.9 22.0 100 0.0 S 15 20 8 11 1017.9 - 6.4
26/08:00am 21.6 24.4 21.6 100 0.0 S 9 15 5 8 1017.7 - 6.4
26/07:30am 21.3 24.0 21.3 100 0.0 SSW 9 13 5 7 1017.8 - 6.4
26/07:00am 21.2 23.0 21.2 100 0.0 S 13 19 7 10 1017.5 - 6.4
26/06:30am 21.0 23.5 21.0 100 0.0 SSW 9 13 5 7 1017.2 - 6.4
26/06:00am 20.9 23.3 20.9 100 0.0 SSW 9 11 5 6 1016.9 1016.6 6.4
26/05:30am 20.8 23.6 20.8 100 0.0 SW 7 11 4 6 1016.7 - 6.4
26/05:00am 20.9 23.7 20.9 100 0.0 WSW 7 13 4 7 1016.7 - 6.4
26/04:30am 20.9 23.0 20.9 100 0.0 SSW 11 17 6 9 1016.4 - 6.4
26/04:00am 20.7 21.9 20.7 100 0.0 S 15 20 8 11 1016.0 - 6.4
26/03:30am 20.8 22.1 20.8 100 0.0 S 15 20 8 11 1016.3 - 6.4
26/03:00am 21.1 23.3 21.1 100 0.0 SSW 11 17 6 9 1016.5 1016.3 6.4
26/02:30am 21.3 23.6 21.3 100 0.0 SSW 11 15 6 8 1016.8 - 6.4
26/02:00am 21.5 24.6 21.5 100 0.0 SSW 7 9 4 5 1017.1 - 6.4
26/01:30am 21.6 24.0 21.6 100 0.0 SSW 11 17 6 9 1017.3 - 6.2
26/01:00am 21.4 23.3 21.4 100 0.0 SSW 13 20 7 11 1017.8 - 6.2
26/12:30am 21.4 24.1 21.4 100 0.0 S 9 15 5 8 1018.0 - 6.2
26/12:00am 21.3 24.0 21.3 100 0.0 SSW 9 13 5 7 1018.2 1018.0 6.2
 
Date/Time
EDT
Temp
°C
App
Temp
°C
Dew
Point
Rel
Hum
%
Delta-T
°C
Wind Press
QNH
hPa
Press
MSL
hPa
Rain
since 9 am
mm
Dir
 
Spd
km/h
Gust
km/h
Spd
kts
Gust
kts
25/11:30pm 21.3 24.3 21.3 100 0.0 W 7 11 4 6 1018.5 - 6.2
25/11:00pm 21.2 23.8 21.2 100 0.0 WSW 9 15 5 8 1018.5 - 6.2
25/10:30pm 21.2 24.2 21.2 100 0.0 W 7 13 4 7 1018.4 - 6.2
25/10:00pm 21.3 24.0 21.3 100 0.0 WNW 9 13 5 7 1018.6 - 6.0
25/09:30pm 21.2 24.4 21.2 100 0.0 SSW 6 11 3 6 1018.4 - 5.8
25/09:00pm 21.1 23.6 21.1 100 0.0 S 9 15 5 8 1017.7 1017.5 5.8
25/08:30pm 20.8 23.2 20.8 100 0.0 SSW 9 13 5 7 1017.2 - 5.8
25/08:00pm 20.7 23.0 20.7 100 0.0 SSW 9 13 5 7 1016.9 - 5.6
25/07:30pm 20.5 21.6 20.5 100 0.0 SE 15 19 8 10 1016.3 - 5.6
25/07:00pm 20.5 21.1 20.3 99 0.1 SE 17 20 9 11 1016.3 - 3.6
25/06:30pm 20.6 20.5 19.9 96 0.4 SSE 20 32 11 17 1015.9 - 1.8
25/06:00pm 20.8 19.7 20.3 97 0.3 SE 26 33 14 18 1015.4 1015.2 1.6
25/05:30pm 22.1 21.4 20.2 89 1.2 SSE 24 35 13 19 1015.1 - 0.0
25/05:00pm 23.0 22.6 20.9 88 1.4 SSE 24 37 13 20 1014.5 - 0.0
25/04:30pm 23.6 22.0 20.7 84 1.9 SSE 30 43 16 23 1014.0 - 0.0
25/04:21pm 23.4 20.6 19.5 79 2.5 SSE 33 44 18 24 1013.7 - 0.0
25/04:20pm 23.4 20.6 19.5 79 2.5 SSE 33 44 18 24 1013.7 - 0.0
25/04:00pm 23.7 24.5 19.0 75 3.0 ESE 13 17 7 9 1012.8 - 0.0
25/03:30pm 24.6 26.1 18.8 70 3.7 ENE 9 13 5 7 1012.0 - 0.0
25/03:00pm 26.6 28.3 20.2 68 4.2 NNE 11 15 6 8 1011.3 1011.2 0.0
25/02:30pm 26.9 29.1 20.5 68 4.2 NNE 9 19 5 10 1011.4 - 0.0
25/02:00pm 26.2 28.4 20.5 71 3.7 NE 9 19 5 10 1011.8 - 0.0
25/01:30pm 26.3 28.5 21.1 73 3.4 NE 11 17 6 9 1012.1 - 0.0
25/01:00pm 26.8 30.1 21.8 74 3.3 NNE 7 13 4 7 1012.4 - 0.0
25/12:30pm 25.5 28.1 21.2 77 2.8 NE 9 17 5 9 1012.7 - 0.0
25/12:00pm 24.0 25.8 20.3 80 2.4 ENE 11 15 6 8 1012.9 1012.8 0.0
25/11:30am 25.9 28.6 21.3 76 3.0 NE 9 13 5 7 1012.9 - 0.0
25/11:00am 25.1 27.8 20.6 76 2.9 ENE 7 13 4 7 1013.2 - 0.0
25/10:30am 26.0 29.2 21.7 77 2.9 N 7 9 4 5 1013.5 - 0.0
25/10:00am 25.3 28.6 21.4 79 2.6 NNE 6 11 3 6 1013.5 - 0.0
25/09:30am 24.9 27.9 21.2 80 2.4 NNE 7 9 4 5 1013.5 - 0.0
25/09:00am 24.5 27.7 21.2 82 2.2 N 6 9 3 5 1013.5 1013.4 0.0
25/08:30am 23.7 26.6 21.0 85 1.8 N 7 11 4 6 1013.3 - 0.0
25/08:00am 23.0 26.0 21.3 90 1.1 N 7 11 4 6 1013.1 - 0.0
25/07:30am 22.4 25.5 21.4 94 0.7 N 7 11 4 6 1013.1 - 0.0
25/07:00am 21.4 23.6 21.1 98 0.2 N 11 15 6 8 1012.7 - 0.0
25/06:30am 21.0 24.1 21.0 100 0.0 N 6 9 3 5 1012.7 - 0.0
25/06:00am 20.6 23.3 20.6 100 0.0 N 7 13 4 7 1012.3 1012.2 0.0
25/05:30am 20.5 23.2 20.3 99 0.1 NNW 6 7 3 4 1012.2 - 0.0
25/05:00am 20.5 23.0 20.3 99 0.1 N 7 11 4 6 1011.7 - 0.0
25/04:30am 20.5 23.1 20.0 97 0.3 N 6 9 3 5 1011.5 - 0.0
25/04:00am 20.7 22.8 20.2 97 0.3 N 9 15 5 8 1011.2 - 0.0
25/03:30am 20.9 23.4 20.2 96 0.4 N 7 9 4 5 1011.3 - 0.0
25/03:00am 21.2 23.4 20.5 96 0.5 WNW 9 15 5 8 1011.7 1011.6 0.0
25/02:30am 20.9 22.7 20.4 97 0.3 N 11 17 6 9 1011.4 - 0.0
25/02:00am 20.7 21.8 20.4 98 0.2 N 15 20 8 11 1010.9 - 0.0
25/01:30am 20.8 22.2 20.3 97 0.3 N 13 20 7 11 1011.2 - 0.0
25/01:00am 20.9 22.3 20.4 97 0.3 N 13 22 7 12 1011.5 - 0.0
25/12:30am 21.0 22.1 20.5 97 0.3 N 15 26 8 14 1011.7 - 0.0
25/12:00am 21.1 22.2 20.4 96 0.5 N 15 24 8 13 1011.9 1011.8 0.0
 
Date/Time
EDT
Temp
°C
App
Temp
°C
Dew
Point
Rel
Hum
%
Delta-T
°C
Wind Press
QNH
hPa
Press
MSL
hPa
Rain
since 9 am
mm
Dir
 
Spd
km/h
Gust
km/h
Spd
kts
Gust
kts
24/11:30pm 21.1 22.1 20.3 95 0.5 N 15 26 8 14 1011.8 - 0.0
24/11:00pm 21.1 21.8 20.4 96 0.5 N 17 32 9 17 1011.6 - 0.0
24/10:30pm 21.2 21.9 20.4 95 0.5 N 17 28 9 15 1012.1 - 0.0
24/10:00pm 21.1 21.4 20.4 96 0.5 N 19 32 10 17 1011.6 - 0.0
24/09:30pm 21.1 21.4 20.4 96 0.5 N 19 32 10 17 1011.2 - 0.0
24/09:00pm 21.2 21.3 20.4 95 0.5 N 20 33 11 18 1010.6 1010.5 0.0
24/08:30pm 21.3 21.6 20.3 94 0.6 N 19 32 10 17 1010.3 - 0.0
24/08:00pm 21.6 21.9 20.4 93 0.8 N 19 32 10 17 1010.2 - 0.0
24/07:30pm 21.8 22.1 20.4 92 0.9 N 19 30 10 16 1009.9 - 0.0
24/07:00pm 22.2 22.4 20.5 90 1.1 N 20 32 11 17 1009.5 - 0.0
24/06:30pm 23.0 23.3 20.7 87 1.5 N 20 39 11 21 1009.3 - 0.0
24/06:00pm 23.8 24.2 20.9 84 1.9 N 20 33 11 18 1009.3 1009.2 0.0
24/05:30pm 24.5 25.0 21.2 82 2.2 N 20 41 11 22 1009.4 - 0.0
24/05:00pm 25.3 25.9 21.4 79 2.6 N 20 37 11 20 1009.7 - 0.0
24/04:30pm 24.7 25.6 21.6 83 2.1 N 19 33 10 18 1009.9 - 0.0
24/04:00pm 24.0 24.3 20.3 80 2.4 N 19 28 10 15 1010.5 - 0.0
24/03:30pm 24.3 24.6 20.4 79 2.5 N 19 39 10 21 1011.0 - 0.0
24/03:00pm 24.5 25.3 20.6 79 2.5 N 17 33 9 18 1011.5 1011.5 0.0
24/02:30pm 24.5 25.6 20.4 78 2.7 N 15 26 8 14 1012.0 - 0.0
24/02:00pm 24.9 25.9 20.2 75 3.1 N 15 24 8 13 1012.4 - 0.0
24/01:30pm 27.1 28.6 21.2 70 3.9 N 15 28 8 15 1012.8 - 0.0
24/01:00pm 27.1 28.7 21.4 71 3.8 N 15 26 8 14 1013.2 - 0.0
24/12:30pm 26.5 28.2 21.0 72 3.6 N 13 24 7 13 1013.7 - 0.0
24/12:00pm 27.7 29.0 21.7 70 4.0 N 17 28 9 15 1014.1 1014.0 0.0
24/11:30am 27.4 29.2 21.9 72 3.7 N 15 24 8 13 1014.7 - 0.0
24/11:00am 26.6 29.2 22.0 76 3.1 N 11 17 6 9 1015.1 - 0.0
24/10:30am 26.6 29.2 22.0 76 3.1 N 11 20 6 11 1015.2 - 0.0
24/10:00am 26.2 29.0 22.3 79 2.6 N 11 17 6 9 1015.5 - 0.0
24/09:30am 25.2 27.8 21.9 82 2.2 N 11 17 6 9 1015.6 - 0.0
24/09:00am 24.8 27.8 21.9 84 1.9 N 9 15 5 8 1015.9 1015.7 0.0
24/08:30am 24.0 27.0 21.9 88 1.4 N 9 15 5 8 1016.2 - 0.0
24/08:00am 23.2 25.6 21.6 91 1.1 N 11 19 6 10 1016.1 - 0.0
24/07:30am 22.5 24.6 21.7 95 0.5 N 13 22 7 12 1015.8 - 0.0
24/07:00am 21.7 23.7 21.5 99 0.1 N 13 20 7 11 1015.6 - 0.0
24/06:30am 21.1 22.9 21.1 100 0.0 N 13 19 7 10 1015.2 - 0.0
24/06:00am 20.8 22.8 20.8 100 0.0 N 11 20 6 11 1015.1 1014.9 0.0
24/05:30am 20.8 22.8 20.8 100 0.0 N 11 19 6 10 1015.1 - 0.0
24/05:00am 20.9 23.0 20.9 100 0.0 N 11 20 6 11 1014.7 - 0.0
24/04:30am 20.9 23.3 20.9 100 0.0 N 9 15 5 8 1014.6 - 0.0
24/04:00am 21.0 23.1 21.0 100 0.0 N 11 17 6 9 1014.7 - 0.0
24/03:30am 21.2 23.0 21.2 100 0.0 N 13 20 7 11 1014.5 - 0.0
24/03:00am 21.3 23.2 21.3 100 0.0 N 13 24 7 13 1014.1 1013.9 0.0
24/02:30am 21.4 23.0 21.4 100 0.0 N 15 28 8 15 1013.9 - 0.0
24/02:00am 21.4 23.0 21.4 100 0.0 N 15 24 8 13 1014.0 - 0.0
24/01:30am 21.5 23.0 21.3 99 0.1 N 15 28 8 15 1014.1 - 0.0
24/01:00am 21.7 23.3 21.4 98 0.2 N 15 26 8 14 1014.5 - 0.0
24/12:30am 21.8 23.3 21.3 97 0.3 N 15 26 8 14 1014.6 - 0.0
24/12:00am 21.8 23.6 21.1 96 0.5 N 13 26 7 14 1014.7 1014.5 0.0
 
Date/Time
EDT
Temp
°C
App
Temp
°C
Dew
Point
Rel
Hum
%
Delta-T
°C
Wind Press
QNH
hPa
Press
MSL
hPa
Rain
since 9 am
mm
Dir
 
Spd
km/h
Gust
km/h
Spd
kts
Gust
kts
23/11:30pm 21.9 24.1 21.2 96 0.5 N 11 17 6 9 1014.9 - 0.0
23/11:00pm 21.9 24.1 21.1 95 0.5 N 11 20 6 11 1014.8 - 0.0
23/10:30pm 21.8 23.9 21.0 95 0.5 N 11 24 6 13 1014.5 - 0.0
23/10:00pm 21.9 23.6 20.9 94 0.7 N 13 22 7 12 1014.0 - 0.0
23/09:30pm 22.0 23.6 20.8 93 0.8 N 13 24 7 13 1014.0 - 0.0
23/09:00pm 22.1 24.1 20.7 92 0.9 N 11 17 6 9 1014.5 1014.3 0.0

Other Formats:

Comma delimited format used in spreadsheet applications
http://www.bom.gov.au/fwo/IDN60801/IDN60801.94589.axf

JavaScript Object Notation format (JSON) in row-major order
http://www.bom.gov.au/fwo/IDN60801/IDN60801.94589.json